sensor_id;sensor_type;location;lat;lon;timestamp;temperature;humidity
4308;DHT22;2167;53.448;9.984;2022-07-10T00:00:17;15.30;34.60
4308;DHT22;2167;53.448;9.984;2022-07-10T00:02:46;15.30;35.30
4308;DHT22;2167;53.448;9.984;2022-07-10T00:05:12;15.20;35.70
4308;DHT22;2167;53.448;9.984;2022-07-10T00:07:38;15.20;35.70
4308;DHT22;2167;53.448;9.984;2022-07-10T00:10:04;15.20;36.10
4308;DHT22;2167;53.448;9.984;2022-07-10T00:12:30;15.10;36.60
4308;DHT22;2167;53.448;9.984;2022-07-10T00:14:55;15.10;37.40
4308;DHT22;2167;53.448;9.984;2022-07-10T00:17:21;15.00;37.70
4308;DHT22;2167;53.448;9.984;2022-07-10T00:19:46;14.90;38.40
4308;DHT22;2167;53.448;9.984;2022-07-10T00:22:12;14.80;39.40
4308;DHT22;2167;53.448;9.984;2022-07-10T00:24:38;14.80;40.80
4308;DHT22;2167;53.448;9.984;2022-07-10T00:27:04;14.80;42.40
4308;DHT22;2167;53.448;9.984;2022-07-10T00:29:29;14.80;42.10
4308;DHT22;2167;53.448;9.984;2022-07-10T00:31:55;14.70;42.80
4308;DHT22;2167;53.448;9.984;2022-07-10T00:34:21;14.80;43.30
4308;DHT22;2167;53.448;9.984;2022-07-10T00:36:46;14.70;43.90
4308;DHT22;2167;53.448;9.984;2022-07-10T00:39:12;14.80;44.20
4308;DHT22;2167;53.448;9.984;2022-07-10T00:41:38;14.80;45.30
4308;DHT22;2167;53.448;9.984;2022-07-10T00:44:03;14.80;45.60
4308;DHT22;2167;53.448;9.984;2022-07-10T00:46:30;14.70;45.60
4308;DHT22;2167;53.448;9.984;2022-07-10T00:48:56;14.80;45.10
4308;DHT22;2167;53.448;9.984;2022-07-10T00:51:27;14.70;44.80
4308;DHT22;2167;53.448;9.984;2022-07-10T00:53:53;14.80;43.60
4308;DHT22;2167;53.448;9.984;2022-07-10T00:56:23;14.80;43.50
4308;DHT22;2167;53.448;9.984;2022-07-10T00:58:49;14.80;42.60
4308;DHT22;2167;53.448;9.984;2022-07-10T01:01:16;14.70;41.60
4308;DHT22;2167;53.448;9.984;2022-07-10T01:03:42;14.70;41.90
4308;DHT22;2167;53.448;9.984;2022-07-10T01:06:12;14.60;42.60
4308;DHT22;2167;53.448;9.984;2022-07-10T01:08:38;14.50;43.10
4308;DHT22;2167;53.448;9.984;2022-07-10T01:11:04;14.50;43.80
4308;DHT22;2167;53.448;9.984;2022-07-10T01:13:30;14.40;43.30
4308;DHT22;2167;53.448;9.984;2022-07-10T01:15:57;14.40;43.80
4308;DHT22;2167;53.448;9.984;2022-07-10T01:18:28;14.40;44.80
4308;DHT22;2167;53.448;9.984;2022-07-10T01:20:55;14.40;45.70
4308;DHT22;2167;53.448;9.984;2022-07-10T01:23:21;14.40;45.70
4308;DHT22;2167;53.448;9.984;2022-07-10T01:25:48;14.30;46.00
4308;DHT22;2167;53.448;9.984;2022-07-10T01:28:15;14.40;46.40
4308;DHT22;2167;53.448;9.984;2022-07-10T01:30:41;14.40;46.20
4308;DHT22;2167;53.448;9.984;2022-07-10T01:33:06;14.40;46.50
4308;DHT22;2167;53.448;9.984;2022-07-10T01:35:32;14.40;46.40
4308;DHT22;2167;53.448;9.984;2022-07-10T01:37:58;14.40;46.20
4308;DHT22;2167;53.448;9.984;2022-07-10T01:40:23;14.40;46.30
4308;DHT22;2167;53.448;9.984;2022-07-10T01:42:49;14.30;46.60
4308;DHT22;2167;53.448;9.984;2022-07-10T01:45:16;14.30;47.80
4308;DHT22;2167;53.448;9.984;2022-07-10T01:47:42;14.30;47.80
4308;DHT22;2167;53.448;9.984;2022-07-10T01:50:09;14.30;48.00
4308;DHT22;2167;53.448;9.984;2022-07-10T01:52:35;14.30;48.40
4308;DHT22;2167;53.448;9.984;2022-07-10T01:55:02;14.30;48.10
4308;DHT22;2167;53.448;9.984;2022-07-10T01:57:28;14.40;47.80
4308;DHT22;2167;53.448;9.984;2022-07-10T01:59:54;14.40;46.50
4308;DHT22;2167;53.448;9.984;2022-07-10T02:02:19;14.40;46.00
4308;DHT22;2167;53.448;9.984;2022-07-10T02:04:45;14.40;45.90
4308;DHT22;2167;53.448;9.984;2022-07-10T02:07:17;14.40;45.90
4308;DHT22;2167;53.448;9.984;2022-07-10T02:09:44;14.40;46.80
4308;DHT22;2167;53.448;9.984;2022-07-10T02:12:11;14.40;46.30
4308;DHT22;2167;53.448;9.984;2022-07-10T02:14:37;14.50;46.00
4308;DHT22;2167;53.448;9.984;2022-07-10T02:17:04;14.40;45.90
4308;DHT22;2167;53.448;9.984;2022-07-10T02:19:30;14.50;45.90
4308;DHT22;2167;53.448;9.984;2022-07-10T02:21:56;14.60;45.40
4308;DHT22;2167;53.448;9.984;2022-07-10T02:24:22;14.60;45.10
4308;DHT22;2167;53.448;9.984;2022-07-10T02:26:48;14.60;44.40
4308;DHT22;2167;53.448;9.984;2022-07-10T02:29:15;14.60;44.80
4308;DHT22;2167;53.448;9.984;2022-07-10T02:31:40;14.60;44.90
4308;DHT22;2167;53.448;9.984;2022-07-10T02:34:07;14.70;44.90
4308;DHT22;2167;53.448;9.984;2022-07-10T02:36:33;14.70;44.40
4308;DHT22;2167;53.448;9.984;2022-07-10T02:38:59;14.70;44.60
4308;DHT22;2167;53.448;9.984;2022-07-10T02:41:25;14.70;44.50
4308;DHT22;2167;53.448;9.984;2022-07-10T02:43:51;14.70;44.20
4308;DHT22;2167;53.448;9.984;2022-07-10T02:46:16;14.70;44.80
4308;DHT22;2167;53.448;9.984;2022-07-10T02:48:42;14.70;43.30
4308;DHT22;2167;53.448;9.984;2022-07-10T02:51:07;14.70;42.20
4308;DHT22;2167;53.448;9.984;2022-07-10T02:53:33;14.70;41.80
4308;DHT22;2167;53.448;9.984;2022-07-10T02:55:58;14.60;42.10
4308;DHT22;2167;53.448;9.984;2022-07-10T02:58:24;14.60;40.20
4308;DHT22;2167;53.448;9.984;2022-07-10T03:00:51;14.60;40.50
4308;DHT22;2167;53.448;9.984;2022-07-10T03:03:16;14.50;40.60
4308;DHT22;2167;53.448;9.984;2022-07-10T03:05:44;14.50;41.10
4308;DHT22;2167;53.448;9.984;2022-07-10T03:08:10;14.60;41.30
4308;DHT22;2167;53.448;9.984;2022-07-10T03:10:36;14.60;41.50
4308;DHT22;2167;53.448;9.984;2022-07-10T03:13:01;14.60;41.40
4308;DHT22;2167;53.448;9.984;2022-07-10T03:15:27;14.60;41.40
4308;DHT22;2167;53.448;9.984;2022-07-10T03:17:53;14.60;41.80
4308;DHT22;2167;53.448;9.984;2022-07-10T03:20:18;14.60;41.40
4308;DHT22;2167;53.448;9.984;2022-07-10T03:22:44;14.70;40.40
4308;DHT22;2167;53.448;9.984;2022-07-10T03:25:10;14.60;40.20
4308;DHT22;2167;53.448;9.984;2022-07-10T03:27:35;14.70;40.30
4308;DHT22;2167;53.448;9.984;2022-07-10T03:30:01;14.60;39.70
4308;DHT22;2167;53.448;9.984;2022-07-10T03:32:27;14.70;39.60
4308;DHT22;2167;53.448;9.984;2022-07-10T03:34:53;14.70;39.00
4308;DHT22;2167;53.448;9.984;2022-07-10T03:37:19;14.70;38.80
4308;DHT22;2167;53.448;9.984;2022-07-10T03:39:44;14.70;39.40
4308;DHT22;2167;53.448;9.984;2022-07-10T03:42:10;14.70;39.10
4308;DHT22;2167;53.448;9.984;2022-07-10T03:44:35;14.70;38.90
4308;DHT22;2167;53.448;9.984;2022-07-10T03:47:01;14.70;39.10
4308;DHT22;2167;53.448;9.984;2022-07-10T03:49:27;14.70;38.80
4308;DHT22;2167;53.448;9.984;2022-07-10T03:51:53;14.70;38.80
4308;DHT22;2167;53.448;9.984;2022-07-10T03:54:19;14.70;38.50
4308;DHT22;2167;53.448;9.984;2022-07-10T03:56:45;14.70;38.10
4308;DHT22;2167;53.448;9.984;2022-07-10T03:59:29;14.80;38.20
4308;DHT22;2167;53.448;9.984;2022-07-10T04:01:55;14.80;37.50
4308;DHT22;2167;53.448;9.984;2022-07-10T04:04:20;14.70;37.20
4308;DHT22;2167;53.448;9.984;2022-07-10T04:06:46;14.70;36.50
4308;DHT22;2167;53.448;9.984;2022-07-10T04:09:11;14.80;35.60
4308;DHT22;2167;53.448;9.984;2022-07-10T04:11:37;14.80;35.20
4308;DHT22;2167;53.448;9.984;2022-07-10T04:14:03;14.80;35.60
4308;DHT22;2167;53.448;9.984;2022-07-10T04:16:29;14.80;36.10
4308;DHT22;2167;53.448;9.984;2022-07-10T04:18:54;14.80;35.90
4308;DHT22;2167;53.448;9.984;2022-07-10T04:21:20;14.70;37.50
4308;DHT22;2167;53.448;9.984;2022-07-10T04:23:46;14.80;37.10
4308;DHT22;2167;53.448;9.984;2022-07-10T04:26:11;14.70;37.10
4308;DHT22;2167;53.448;9.984;2022-07-10T04:28:37;14.70;37.10
4308;DHT22;2167;53.448;9.984;2022-07-10T04:31:02;14.70;37.50
4308;DHT22;2167;53.448;9.984;2022-07-10T04:33:28;14.70;37.30
4308;DHT22;2167;53.448;9.984;2022-07-10T04:35:54;14.70;38.30
4308;DHT22;2167;53.448;9.984;2022-07-10T04:38:19;14.70;39.30
4308;DHT22;2167;53.448;9.984;2022-07-10T04:40:45;14.70;39.60
4308;DHT22;2167;53.448;9.984;2022-07-10T04:43:10;14.70;39.20
4308;DHT22;2167;53.448;9.984;2022-07-10T04:45:36;14.70;38.80
4308;DHT22;2167;53.448;9.984;2022-07-10T04:48:04;14.70;38.50
4308;DHT22;2167;53.448;9.984;2022-07-10T04:50:30;14.80;38.70
4308;DHT22;2167;53.448;9.984;2022-07-10T04:52:56;14.80;38.80
4308;DHT22;2167;53.448;9.984;2022-07-10T04:55:22;14.90;37.60
4308;DHT22;2167;53.448;9.984;2022-07-10T04:57:48;14.90;37.50
4308;DHT22;2167;53.448;9.984;2022-07-10T05:00:14;14.90;37.00
4308;DHT22;2167;53.448;9.984;2022-07-10T05:02:40;14.90;36.50
4308;DHT22;2167;53.448;9.984;2022-07-10T05:05:06;14.90;36.40
4308;DHT22;2167;53.448;9.984;2022-07-10T05:07:31;15.00;37.20
4308;DHT22;2167;53.448;9.984;2022-07-10T05:09:57;15.00;36.60
4308;DHT22;2167;53.448;9.984;2022-07-10T05:12:23;15.00;35.30
4308;DHT22;2167;53.448;9.984;2022-07-10T05:14:49;15.00;35.00
4308;DHT22;2167;53.448;9.984;2022-07-10T05:17:15;15.00;34.40
4308;DHT22;2167;53.448;9.984;2022-07-10T05:19:41;15.00;34.60
4308;DHT22;2167;53.448;9.984;2022-07-10T05:22:07;14.90;34.80
4308;DHT22;2167;53.448;9.984;2022-07-10T05:24:34;15.00;35.60
4308;DHT22;2167;53.448;9.984;2022-07-10T05:27:00;15.00;35.90
4308;DHT22;2167;53.448;9.984;2022-07-10T05:29:25;15.00;35.30
4308;DHT22;2167;53.448;9.984;2022-07-10T05:31:51;15.00;35.00
4308;DHT22;2167;53.448;9.984;2022-07-10T05:34:17;15.10;34.70
4308;DHT22;2167;53.448;9.984;2022-07-10T05:36:42;15.10;34.10
4308;DHT22;2167;53.448;9.984;2022-07-10T05:39:08;15.20;33.80
4308;DHT22;2167;53.448;9.984;2022-07-10T05:41:34;15.20;33.00
4308;DHT22;2167;53.448;9.984;2022-07-10T05:44:00;15.30;32.10
4308;DHT22;2167;53.448;9.984;2022-07-10T05:46:25;15.30;32.00
4308;DHT22;2167;53.448;9.984;2022-07-10T05:48:51;15.40;31.10
4308;DHT22;2167;53.448;9.984;2022-07-10T05:51:17;15.40;30.20
4308;DHT22;2167;53.448;9.984;2022-07-10T05:53:42;15.40;29.30
4308;DHT22;2167;53.448;9.984;2022-07-10T05:56:08;15.50;28.20
4308;DHT22;2167;53.448;9.984;2022-07-10T05:58:34;15.50;28.30
4308;DHT22;2167;53.448;9.984;2022-07-10T06:01:00;15.40;26.80
4308;DHT22;2167;53.448;9.984;2022-07-10T06:03:25;15.50;28.00
4308;DHT22;2167;53.448;9.984;2022-07-10T06:05:51;15.50;27.40
4308;DHT22;2167;53.448;9.984;2022-07-10T06:08:17;15.60;27.60
4308;DHT22;2167;53.448;9.984;2022-07-10T06:10:42;15.60;27.50
4308;DHT22;2167;53.448;9.984;2022-07-10T06:13:12;15.70;26.80
4308;DHT22;2167;53.448;9.984;2022-07-10T06:15:38;15.80;25.80
4308;DHT22;2167;53.448;9.984;2022-07-10T06:18:04;15.80;23.70
4308;DHT22;2167;53.448;9.984;2022-07-10T06:20:29;15.80;19.80
4308;DHT22;2167;53.448;9.984;2022-07-10T06:22:56;15.80;14.30
4308;DHT22;2167;53.448;9.984;2022-07-10T06:25:22;15.90;14.80
4308;DHT22;2167;53.448;9.984;2022-07-10T06:27:48;16.00;12.10
4308;DHT22;2167;53.448;9.984;2022-07-10T06:30:14;16.00;9.30
4308;DHT22;2167;53.448;9.984;2022-07-10T06:32:40;16.10;9.80
4308;DHT22;2167;53.448;9.984;2022-07-10T06:35:07;16.20;9.80
4308;DHT22;2167;53.448;9.984;2022-07-10T06:37:34;16.20;6.60
4308;DHT22;2167;53.448;9.984;2022-07-10T06:39:59;16.30;5.80
4308;DHT22;2167;53.448;9.984;2022-07-10T06:42:25;16.30;6.40
4308;DHT22;2167;53.448;9.984;2022-07-10T06:44:51;16.30;5.30
4308;DHT22;2167;53.448;9.984;2022-07-10T06:47:18;16.40;6.70
4308;DHT22;2167;53.448;9.984;2022-07-10T06:50:08;16.40;5.00
4308;DHT22;2167;53.448;9.984;2022-07-10T06:52:34;16.50;5.20
4308;DHT22;2167;53.448;9.984;2022-07-10T06:55:03;16.50;6.10
4308;DHT22;2167;53.448;9.984;2022-07-10T06:57:29;16.50;5.40
4308;DHT22;2167;53.448;9.984;2022-07-10T06:59:55;16.50;6.30
4308;DHT22;2167;53.448;9.984;2022-07-10T07:02:21;16.60;6.70
4308;DHT22;2167;53.448;9.984;2022-07-10T07:04:46;16.60;4.00
4308;DHT22;2167;53.448;9.984;2022-07-10T07:07:15;16.60;4.70
4308;DHT22;2167;53.448;9.984;2022-07-10T07:09:41;16.60;3.20
4308;DHT22;2167;53.448;9.984;2022-07-10T07:12:08;16.60;2.30
4308;DHT22;2167;53.448;9.984;2022-07-10T07:14:34;16.70;2.30
4308;DHT22;2167;53.448;9.984;2022-07-10T07:17:00;16.70;1.20
4308;DHT22;2167;53.448;9.984;2022-07-10T07:19:34;16.80;3.20
4308;DHT22;2167;53.448;9.984;2022-07-10T07:22:20;16.80;1.20
4308;DHT22;2167;53.448;9.984;2022-07-10T07:25:06;16.90;2.20
4308;DHT22;2167;53.448;9.984;2022-07-10T07:27:33;16.90;1.00
4308;DHT22;2167;53.448;9.984;2022-07-10T07:30:10;17.00;1.00
4308;DHT22;2167;53.448;9.984;2022-07-10T07:32:36;17.00;1.00
4308;DHT22;2167;53.448;9.984;2022-07-10T07:35:03;17.10;1.00
4308;DHT22;2167;53.448;9.984;2022-07-10T07:37:54;17.20;1.00
4308;DHT22;2167;53.448;9.984;2022-07-10T07:40:22;17.20;1.00
4308;DHT22;2167;53.448;9.984;2022-07-10T07:42:49;17.30;1.00
4308;DHT22;2167;53.448;9.984;2022-07-10T07:45:15;17.40;1.00
4308;DHT22;2167;53.448;9.984;2022-07-10T07:47:48;17.50;1.00
4308;DHT22;2167;53.448;9.984;2022-07-10T07:50:21;17.40;1.00
4308;DHT22;2167;53.448;9.984;2022-07-10T07:52:47;17.50;1.00
4308;DHT22;2167;53.448;9.984;2022-07-10T07:55:14;17.50;1.00
4308;DHT22;2167;53.448;9.984;2022-07-10T07:57:42;17.50;1.00
4308;DHT22;2167;53.448;9.984;2022-07-10T08:00:08;17.50;1.00
4308;DHT22;2167;53.448;9.984;2022-07-10T08:02:34;17.50;1.00
4308;DHT22;2167;53.448;9.984;2022-07-10T08:05:01;17.50;1.00
4308;DHT22;2167;53.448;9.984;2022-07-10T08:07:38;17.50;1.00
4308;DHT22;2167;53.448;9.984;2022-07-10T08:10:04;17.50;1.00
4308;DHT22;2167;53.448;9.984;2022-07-10T08:12:30;17.70;1.00
4308;DHT22;2167;53.448;9.984;2022-07-10T08:14:56;18.00;1.00
4308;DHT22;2167;53.448;9.984;2022-07-10T08:17:23;18.20;1.00
4308;DHT22;2167;53.448;9.984;2022-07-10T08:19:49;18.40;1.00
4308;DHT22;2167;53.448;9.984;2022-07-10T08:22:15;18.60;1.00
4308;DHT22;2167;53.448;9.984;2022-07-10T08:24:40;18.70;1.00
4308;DHT22;2167;53.448;9.984;2022-07-10T08:27:06;18.90;1.00
4308;DHT22;2167;53.448;9.984;2022-07-10T08:29:33;18.90;1.00
4308;DHT22;2167;53.448;9.984;2022-07-10T08:31:58;19.10;1.00
4308;DHT22;2167;53.448;9.984;2022-07-10T08:34:24;19.40;1.00
4308;DHT22;2167;53.448;9.984;2022-07-10T08:36:51;19.70;1.00
4308;DHT22;2167;53.448;9.984;2022-07-10T08:39:16;19.80;1.00
4308;DHT22;2167;53.448;9.984;2022-07-10T08:41:47;19.80;1.00
4308;DHT22;2167;53.448;9.984;2022-07-10T08:44:16;19.80;1.00
4308;DHT22;2167;53.448;9.984;2022-07-10T08:46:42;19.70;1.00
4308;DHT22;2167;53.448;9.984;2022-07-10T08:49:09;19.60;1.00
4308;DHT22;2167;53.448;9.984;2022-07-10T08:51:41;19.60;1.00
4308;DHT22;2167;53.448;9.984;2022-07-10T08:54:13;19.60;1.00
4308;DHT22;2167;53.448;9.984;2022-07-10T08:56:39;19.90;1.00
4308;DHT22;2167;53.448;9.984;2022-07-10T08:59:07;19.90;1.00
4308;DHT22;2167;53.448;9.984;2022-07-10T09:01:33;19.80;1.00
4308;DHT22;2167;53.448;9.984;2022-07-10T09:03:59;19.70;1.00
4308;DHT22;2167;53.448;9.984;2022-07-10T09:06:27;19.70;1.00
4308;DHT22;2167;53.448;9.984;2022-07-10T09:09:03;19.80;1.00
4308;DHT22;2167;53.448;9.984;2022-07-10T09:11:29;20.00;1.00
4308;DHT22;2167;53.448;9.984;2022-07-10T09:14:05;20.30;1.00
4308;DHT22;2167;53.448;9.984;2022-07-10T09:16:35;20.60;1.00
4308;DHT22;2167;53.448;9.984;2022-07-10T09:22:04;20.70;1.00
4308;DHT22;2167;53.448;9.984;2022-07-10T09:24:39;20.90;1.00
4308;DHT22;2167;53.448;9.984;2022-07-10T09:27:05;20.80;1.00
4308;DHT22;2167;53.448;9.984;2022-07-10T09:29:33;20.80;1.00
4308;DHT22;2167;53.448;9.984;2022-07-10T09:32:09;20.90;1.00
4308;DHT22;2167;53.448;9.984;2022-07-10T09:37:29;21.10;1.00
4308;DHT22;2167;53.448;9.984;2022-07-10T09:39:56;21.10;1.00
4308;DHT22;2167;53.448;9.984;2022-07-10T09:47:36;21.10;1.00
4308;DHT22;2167;53.448;9.984;2022-07-10T09:50:02;21.10;1.00
4308;DHT22;2167;53.448;9.984;2022-07-10T09:52:28;21.00;1.00
4308;DHT22;2167;53.448;9.984;2022-07-10T09:54:57;20.70;1.00
4308;DHT22;2167;53.448;9.984;2022-07-10T09:57:27;20.50;1.00
4308;DHT22;2167;53.448;9.984;2022-07-10T09:59:53;20.60;1.00
4308;DHT22;2167;53.448;9.984;2022-07-10T10:02:21;20.80;1.00
4308;DHT22;2167;53.448;9.984;2022-07-10T10:04:48;21.00;1.00
4308;DHT22;2167;53.448;9.984;2022-07-10T10:07:18;20.80;1.00
4308;DHT22;2167;53.448;9.984;2022-07-10T10:09:52;20.90;1.00
4308;DHT22;2167;53.448;9.984;2022-07-10T10:12:39;21.00;1.00
4308;DHT22;2167;53.448;9.984;2022-07-10T10:15:09;21.10;1.00
4308;DHT22;2167;53.448;9.984;2022-07-10T10:17:36;21.20;1.00
4308;DHT22;2167;53.448;9.984;2022-07-10T10:20:02;21.20;1.00
4308;DHT22;2167;53.448;9.984;2022-07-10T10:22:48;21.30;1.00
4308;DHT22;2167;53.448;9.984;2022-07-10T10:25:16;21.30;1.00
4308;DHT22;2167;53.448;9.984;2022-07-10T10:27:45;21.60;1.00
4308;DHT22;2167;53.448;9.984;2022-07-10T10:30:11;21.70;1.00
4308;DHT22;2167;53.448;9.984;2022-07-10T10:32:40;21.50;1.00
4308;DHT22;2167;53.448;9.984;2022-07-10T10:35:06;21.60;1.00
4308;DHT22;2167;53.448;9.984;2022-07-10T10:37:41;21.70;1.00
4308;DHT22;2167;53.448;9.984;2022-07-10T10:40:11;21.90;1.00
4308;DHT22;2167;53.448;9.984;2022-07-10T10:42:54;22.00;1.00
4308;DHT22;2167;53.448;9.984;2022-07-10T10:45:30;21.80;1.00
4308;DHT22;2167;53.448;9.984;2022-07-10T10:48:11;21.80;1.00
4308;DHT22;2167;53.448;9.984;2022-07-10T10:50:41;22.10;1.00
4308;DHT22;2167;53.448;9.984;2022-07-10T10:53:14;21.90;1.00
4308;DHT22;2167;53.448;9.984;2022-07-10T10:58:26;22.00;1.00
4308;DHT22;2167;53.448;9.984;2022-07-10T11:01:01;22.00;1.00
4308;DHT22;2167;53.448;9.984;2022-07-10T11:03:27;21.90;1.00
4308;DHT22;2167;53.448;9.984;2022-07-10T11:05:55;21.50;1.00
4308;DHT22;2167;53.448;9.984;2022-07-10T11:08:41;21.50;1.00
4308;DHT22;2167;53.448;9.984;2022-07-10T11:13:59;21.80;1.00
4308;DHT22;2167;53.448;9.984;2022-07-10T11:16:25;21.80;1.00
4308;DHT22;2167;53.448;9.984;2022-07-10T11:18:54;21.70;1.00
4308;DHT22;2167;53.448;9.984;2022-07-10T11:21:24;21.60;1.00
4308;DHT22;2167;53.448;9.984;2022-07-10T11:23:59;21.30;1.00
4308;DHT22;2167;53.448;9.984;2022-07-10T11:29:08;21.70;1.00
4308;DHT22;2167;53.448;9.984;2022-07-10T11:31:34;21.70;1.00
4308;DHT22;2167;53.448;9.984;2022-07-10T11:34:05;21.40;1.00
4308;DHT22;2167;53.448;9.984;2022-07-10T11:36:31;21.30;1.00
4308;DHT22;2167;53.448;9.984;2022-07-10T11:39:05;21.20;1.00
4308;DHT22;2167;53.448;9.984;2022-07-10T11:41:32;21.30;1.00
4308;DHT22;2167;53.448;9.984;2022-07-10T11:43:59;21.30;1.00
4308;DHT22;2167;53.448;9.984;2022-07-10T11:46:30;21.10;1.00
4308;DHT22;2167;53.448;9.984;2022-07-10T11:48:56;21.20;1.00
4308;DHT22;2167;53.448;9.984;2022-07-10T11:51:27;21.20;1.00
4308;DHT22;2167;53.448;9.984;2022-07-10T11:56:22;21.10;1.00
4308;DHT22;2167;53.448;9.984;2022-07-10T11:59:02;21.00;1.00
4308;DHT22;2167;53.448;9.984;2022-07-10T12:01:29;21.10;1.00
4308;DHT22;2167;53.448;9.984;2022-07-10T12:03:59;21.10;1.00
4308;DHT22;2167;53.448;9.984;2022-07-10T12:06:26;21.30;1.00
4308;DHT22;2167;53.448;9.984;2022-07-10T12:08:53;21.20;1.00
4308;DHT22;2167;53.448;9.984;2022-07-10T12:11:20;21.00;1.00
4308;DHT22;2167;53.448;9.984;2022-07-10T12:13:47;20.90;1.00
4308;DHT22;2167;53.448;9.984;2022-07-10T12:16:13;21.10;1.00
4308;DHT22;2167;53.448;9.984;2022-07-10T12:18:41;21.30;1.00
4308;DHT22;2167;53.448;9.984;2022-07-10T12:21:08;21.70;1.00
4308;DHT22;2167;53.448;9.984;2022-07-10T12:23:35;21.90;1.00
4308;DHT22;2167;53.448;9.984;2022-07-10T12:26:04;22.20;1.00
4308;DHT22;2167;53.448;9.984;2022-07-10T12:28:30;21.90;1.00
4308;DHT22;2167;53.448;9.984;2022-07-10T12:30:55;21.80;1.00
4308;DHT22;2167;53.448;9.984;2022-07-10T12:33:22;22.00;1.00
4308;DHT22;2167;53.448;9.984;2022-07-10T12:35:58;22.20;1.00
4308;DHT22;2167;53.448;9.984;2022-07-10T12:38:24;22.50;1.00
4308;DHT22;2167;53.448;9.984;2022-07-10T12:40:51;22.60;1.00
4308;DHT22;2167;53.448;9.984;2022-07-10T12:43:31;22.60;1.00
4308;DHT22;2167;53.448;9.984;2022-07-10T12:46:14;22.30;1.00
4308;DHT22;2167;53.448;9.984;2022-07-10T12:49:10;22.10;1.00
4308;DHT22;2167;53.448;9.984;2022-07-10T12:51:47;22.00;1.00
4308;DHT22;2167;53.448;9.984;2022-07-10T12:54:35;22.20;1.00
4308;DHT22;2167;53.448;9.984;2022-07-10T12:57:02;22.50;1.00
4308;DHT22;2167;53.448;9.984;2022-07-10T12:59:35;22.60;1.00
4308;DHT22;2167;53.448;9.984;2022-07-10T13:02:19;22.70;1.00
4308;DHT22;2167;53.448;9.984;2022-07-10T13:04:55;22.90;1.00
4308;DHT22;2167;53.448;9.984;2022-07-10T13:07:32;23.20;1.00
4308;DHT22;2167;53.448;9.984;2022-07-10T13:10:02;23.30;1.00
4308;DHT22;2167;53.448;9.984;2022-07-10T13:12:28;22.80;1.00
4308;DHT22;2167;53.448;9.984;2022-07-10T13:14:54;22.90;1.00
4308;DHT22;2167;53.448;9.984;2022-07-10T13:17:20;22.70;1.00
4308;DHT22;2167;53.448;9.984;2022-07-10T13:19:45;22.30;1.00
4308;DHT22;2167;53.448;9.984;2022-07-10T13:22:11;22.30;1.00
4308;DHT22;2167;53.448;9.984;2022-07-10T13:24:37;22.40;1.00
4308;DHT22;2167;53.448;9.984;2022-07-10T13:27:03;22.30;1.00
4308;DHT22;2167;53.448;9.984;2022-07-10T13:29:29;22.10;1.00
4308;DHT22;2167;53.448;9.984;2022-07-10T13:31:55;22.10;1.00
4308;DHT22;2167;53.448;9.984;2022-07-10T13:34:20;22.00;1.00
4308;DHT22;2167;53.448;9.984;2022-07-10T13:36:46;21.70;1.00
4308;DHT22;2167;53.448;9.984;2022-07-10T13:39:11;21.60;1.00
4308;DHT22;2167;53.448;9.984;2022-07-10T13:41:37;21.60;1.00
4308;DHT22;2167;53.448;9.984;2022-07-10T13:44:03;21.60;1.00
4308;DHT22;2167;53.448;9.984;2022-07-10T13:46:29;21.80;1.00
4308;DHT22;2167;53.448;9.984;2022-07-10T13:48:55;21.90;1.00
4308;DHT22;2167;53.448;9.984;2022-07-10T13:51:21;22.20;1.00
4308;DHT22;2167;53.448;9.984;2022-07-10T13:53:47;22.50;1.00
4308;DHT22;2167;53.448;9.984;2022-07-10T13:56:13;22.70;1.00
4308;DHT22;2167;53.448;9.984;2022-07-10T13:58:39;22.80;1.00
4308;DHT22;2167;53.448;9.984;2022-07-10T14:01:04;22.70;1.00
4308;DHT22;2167;53.448;9.984;2022-07-10T14:03:30;22.50;1.00
4308;DHT22;2167;53.448;9.984;2022-07-10T14:05:57;22.20;1.00
4308;DHT22;2167;53.448;9.984;2022-07-10T14:08:23;21.80;1.00
4308;DHT22;2167;53.448;9.984;2022-07-10T14:10:48;21.40;1.00
4308;DHT22;2167;53.448;9.984;2022-07-10T14:13:14;21.20;1.00
4308;DHT22;2167;53.448;9.984;2022-07-10T14:15:40;21.10;1.00
4308;DHT22;2167;53.448;9.984;2022-07-10T14:18:06;21.10;1.00
4308;DHT22;2167;53.448;9.984;2022-07-10T14:20:32;21.10;1.00
4308;DHT22;2167;53.448;9.984;2022-07-10T14:23:17;21.30;1.00
4308;DHT22;2167;53.448;9.984;2022-07-10T14:25:43;21.60;1.00
4308;DHT22;2167;53.448;9.984;2022-07-10T14:28:08;21.80;1.00
4308;DHT22;2167;53.448;9.984;2022-07-10T14:30:34;22.00;1.00
4308;DHT22;2167;53.448;9.984;2022-07-10T14:33:00;22.20;1.00
4308;DHT22;2167;53.448;9.984;2022-07-10T14:35:25;22.50;1.00
4308;DHT22;2167;53.448;9.984;2022-07-10T14:37:51;22.70;1.00
4308;DHT22;2167;53.448;9.984;2022-07-10T14:40:16;22.80;1.00
4308;DHT22;2167;53.448;9.984;2022-07-10T14:42:42;22.70;1.00
4308;DHT22;2167;53.448;9.984;2022-07-10T14:45:08;22.60;1.00
4308;DHT22;2167;53.448;9.984;2022-07-10T14:47:33;22.50;1.00
4308;DHT22;2167;53.448;9.984;2022-07-10T14:49:59;22.30;1.00
4308;DHT22;2167;53.448;9.984;2022-07-10T14:52:25;22.10;1.00
4308;DHT22;2167;53.448;9.984;2022-07-10T14:54:53;22.00;1.00
4308;DHT22;2167;53.448;9.984;2022-07-10T14:57:19;21.80;1.00
4308;DHT22;2167;53.448;9.984;2022-07-10T14:59:44;21.70;1.00
4308;DHT22;2167;53.448;9.984;2022-07-10T15:02:10;21.50;1.00
4308;DHT22;2167;53.448;9.984;2022-07-10T15:04:36;21.50;1.00
4308;DHT22;2167;53.448;9.984;2022-07-10T15:07:01;21.40;1.00
4308;DHT22;2167;53.448;9.984;2022-07-10T15:09:27;21.10;1.00
4308;DHT22;2167;53.448;9.984;2022-07-10T15:11:52;20.90;1.00
4308;DHT22;2167;53.448;9.984;2022-07-10T15:14:19;20.80;1.00
4308;DHT22;2167;53.448;9.984;2022-07-10T15:16:45;20.80;1.00
4308;DHT22;2167;53.448;9.984;2022-07-10T15:19:11;20.70;1.00
4308;DHT22;2167;53.448;9.984;2022-07-10T15:21:37;20.80;1.00
4308;DHT22;2167;53.448;9.984;2022-07-10T15:24:03;20.80;1.00
4308;DHT22;2167;53.448;9.984;2022-07-10T15:26:29;20.90;1.00
4308;DHT22;2167;53.448;9.984;2022-07-10T15:28:54;21.30;1.00
4308;DHT22;2167;53.448;9.984;2022-07-10T15:31:24;21.50;1.00
4308;DHT22;2167;53.448;9.984;2022-07-10T15:33:50;21.80;1.00
4308;DHT22;2167;53.448;9.984;2022-07-10T15:36:15;22.00;1.00
4308;DHT22;2167;53.448;9.984;2022-07-10T15:38:41;22.00;1.00
4308;DHT22;2167;53.448;9.984;2022-07-10T15:41:08;21.80;1.00
4308;DHT22;2167;53.448;9.984;2022-07-10T15:43:33;21.70;1.00
4308;DHT22;2167;53.448;9.984;2022-07-10T15:45:59;21.80;1.00
4308;DHT22;2167;53.448;9.984;2022-07-10T15:48:25;22.00;1.00
4308;DHT22;2167;53.448;9.984;2022-07-10T15:50:51;22.20;1.00
4308;DHT22;2167;53.448;9.984;2022-07-10T15:53:17;22.20;1.00
4308;DHT22;2167;53.448;9.984;2022-07-10T15:55:42;22.20;1.00
4308;DHT22;2167;53.448;9.984;2022-07-10T15:58:10;22.40;1.00
4308;DHT22;2167;53.448;9.984;2022-07-10T16:00:37;22.20;1.00
4308;DHT22;2167;53.448;9.984;2022-07-10T16:03:02;22.00;1.00
4308;DHT22;2167;53.448;9.984;2022-07-10T16:05:28;21.80;1.00
4308;DHT22;2167;53.448;9.984;2022-07-10T16:07:54;21.80;1.00
4308;DHT22;2167;53.448;9.984;2022-07-10T16:10:19;21.80;1.00
4308;DHT22;2167;53.448;9.984;2022-07-10T16:12:45;21.90;1.00
4308;DHT22;2167;53.448;9.984;2022-07-10T16:15:10;21.80;1.00
4308;DHT22;2167;53.448;9.984;2022-07-10T16:17:37;21.70;1.00
4308;DHT22;2167;53.448;9.984;2022-07-10T16:20:02;21.60;1.00
4308;DHT22;2167;53.448;9.984;2022-07-10T16:22:30;21.40;1.00
4308;DHT22;2167;53.448;9.984;2022-07-10T16:24:56;21.40;1.00
4308;DHT22;2167;53.448;9.984;2022-07-10T16:27:40;21.40;1.00
4308;DHT22;2167;53.448;9.984;2022-07-10T16:30:06;21.40;1.00
4308;DHT22;2167;53.448;9.984;2022-07-10T16:32:32;21.40;1.00
4308;DHT22;2167;53.448;9.984;2022-07-10T16:34:57;21.10;1.00